Time;durP1;ratioP1;P1;durP2;ratioP2;P2;SDS_P1;SDS_P2;PMS_P1;PMS_P2;Temp;Humidity;BMP_temperature;BMP_pressure;BME280_temperature;BME280_humidity;BME280_pressure;Samples;Min_cycle;Max_cycle;Signal;HPM_P1;HPM_P2
2022/03/23 00:01:07;;;;;;;10.60;8.67;;;10.20;1.00;;;;;;5058004;28;20873;-61
2022/03/23 00:03:35;;;;;;;10.47;8.43;;;10.20;1.00;;;;;;5075383;28;20184;-61
2022/03/23 00:06:08;;;;;;;12.60;9.23;;;10.00;1.00;;;;;;5076317;28;20461;-61
2022/03/23 00:08:34;;;;;;;11.10;9.33;;;10.00;1.00;;;;;;5076557;28;20491;-62
2022/03/23 00:10:59;;;;;;;10.67;8.83;;;10.00;1.00;;;;;;5076308;28;20441;-60
2022/03/23 00:13:25;;;;;;;9.83;8.20;;;10.00;1.00;;;;;;5076601;28;20244;-59
2022/03/23 00:15:51;;;;;;;11.70;8.77;;;10.00;1.00;;;;;;5075162;28;20186;-61
2022/03/23 00:18:16;;;;;;;11.67;8.50;;;9.90;1.00;;;;;;5070782;28;20202;-60
2022/03/23 00:20:42;;;;;;;10.60;9.20;;;9.80;1.00;;;;;;5073095;28;20199;-62
2022/03/23 00:23:09;;;;;;;13.77;8.83;;;9.80;1.00;;;;;;5072983;28;20700;-62
2022/03/23 00:25:36;;;;;;;11.60;9.13;;;9.70;1.00;;;;;;5073020;28;20215;-60
2022/03/23 00:28:02;;;;;;;10.97;8.23;;;9.70;1.00;;;;;;5072707;28;20440;-61
2022/03/23 00:30:27;;;;;;;10.53;8.73;;;9.70;1.00;;;;;;5073039;28;20934;-60
2022/03/23 00:32:53;;;;;;;11.53;8.70;;;9.60;1.00;;;;;;5069107;28;20541;-59
2022/03/23 00:35:19;;;;;;;14.33;8.70;;;9.60;1.00;;;;;;5072856;28;20237;-60
2022/03/23 00:37:46;;;;;;;12.10;8.50;;;9.40;1.00;;;;;;5072582;28;20180;-59
2022/03/23 00:40:12;;;;;;;11.47;8.57;;;9.40;1.00;;;;;;5072913;28;20273;-59
2022/03/23 00:42:37;;;;;;;12.77;8.43;;;9.50;1.00;;;;;;5072898;28;20525;-61
2022/03/23 00:45:04;;;;;;;9.70;8.00;;;9.40;1.00;;;;;;5072785;28;20553;-60
2022/03/23 00:47:30;;;;;;;10.63;8.43;;;9.40;1.00;;;;;;5072920;28;20664;-61
2022/03/23 00:49:55;;;;;;;11.30;9.57;;;9.40;1.00;;;;;;5072515;28;20441;-61
2022/03/23 00:52:21;;;;;;;14.20;8.27;;;9.30;1.00;;;;;;5072500;28;20441;-60
2022/03/23 00:54:46;;;;;;;10.30;8.90;;;9.30;1.00;;;;;;5072627;28;20309;-61
2022/03/23 00:57:12;;;;;;;14.27;8.97;;;9.20;1.00;;;;;;5072254;28;20656;-61
2022/03/23 00:59:37;;;;;;;10.80;8.77;;;9.20;1.00;;;;;;5072460;28;20194;-60
2022/03/23 01:02:05;;;;;;;10.50;8.27;;;9.30;1.00;;;;;;5072371;28;20210;-62
2022/03/23 01:04:31;;;;;;;12.70;8.60;;;9.30;1.00;;;;;;5072535;28;20544;-60
2022/03/23 01:06:58;;;;;;;14.00;8.87;;;;;;;;;;5071892;28;20876;-60
2022/03/23 01:09:23;;;;;;;10.83;8.63;;;9.20;1.00;;;;;;5072619;28;20528;-61
2022/03/23 01:11:50;;;;;;;11.17;8.37;;;9.10;1.00;;;;;;5072477;28;20521;-59
2022/03/23 01:14:16;;;;;;;12.47;8.40;;;9.30;1.00;;;;;;5053939;28;20190;-62
2022/03/23 01:16:42;;;;;;;13.60;9.17;;;9.30;1.00;;;;;;5072109;28;20437;-60
2022/03/23 01:19:08;;;;;;;11.97;8.10;;;9.30;1.00;;;;;;5071843;28;20244;-59
2022/03/23 01:21:34;;;;;;;9.70;8.57;;;9.30;1.00;;;;;;5067715;28;20469;-60
2022/03/23 01:23:59;;;;;;;11.63;8.50;;;9.10;1.00;;;;;;5072084;28;20176;-60
2022/03/23 01:26:25;;;;;;;8.63;7.57;;;;;;;;;;5071761;28;20179;-62
2022/03/23 01:28:51;;;;;;;11.73;9.10;;;9.10;1.00;;;;;;5071931;28;20168;-60
2022/03/23 01:31:16;;;;;;;9.37;8.10;;;9.10;1.00;;;;;;5071676;28;20524;-59
2022/03/23 01:33:42;;;;;;;10.43;8.17;;;9.00;1.00;;;;;;5069972;28;20191;-60
2022/03/23 01:36:07;;;;;;;10.27;8.40;;;9.00;1.00;;;;;;5069906;28;20187;-60
2022/03/23 01:38:33;;;;;;;11.67;9.37;;;9.00;1.00;;;;;;5071823;28;20219;-60
2022/03/23 01:40:58;;;;;;;9.80;8.77;;;8.80;1.00;;;;;;5071721;28;20195;-61
2022/03/23 01:43:24;;;;;;;16.73;9.70;;;8.80;1.00;;;;;;5071329;28;20204;-60
2022/03/23 01:45:50;;;;;;;10.77;8.97;;;8.80;1.00;;;;;;5071298;28;20240;-58
2022/03/23 01:48:15;;;;;;;11.23;8.60;;;8.80;1.00;;;;;;5066742;28;20194;-59
2022/03/23 01:50:41;;;;;;;11.40;8.80;;;8.70;1.00;;;;;;5053280;28;20190;-60
2022/03/23 01:53:07;;;;;;;17.40;9.83;;;8.70;1.00;;;;;;5071474;28;20192;-62
2022/03/23 01:55:33;;;;;;;10.87;9.23;;;8.70;1.00;;;;;;5071239;28;20266;-59
2022/03/23 01:57:59;;;;;;;13.37;9.40;;;8.70;1.00;;;;;;5071347;28;20460;-58
2022/03/23 02:00:26;;;;;;;12.70;9.37;;;8.60;1.00;;;;;;5071129;28;20441;-59
2022/03/23 02:02:52;;;;;;;13.33;9.27;;;8.70;1.00;;;;;;5071332;28;20641;-60
2022/03/23 02:05:18;;;;;;;11.77;9.60;;;8.70;1.00;;;;;;5070935;28;20445;-57
2022/03/23 02:07:43;;;;;;;11.77;9.30;;;8.60;1.00;;;;;;5070943;28;20616;-61
2022/03/23 02:10:09;;;;;;;9.50;8.33;;;8.50;1.00;;;;;;5071015;28;20317;-59
2022/03/23 02:12:35;;;;;;;12.40;9.80;;;8.40;1.00;;;;;;5070851;28;20274;-63
2022/03/23 02:15:11;;;;;;;14.23;9.67;;;8.30;1.00;;;;;;5071272;28;20191;-59
2022/03/23 02:17:37;;;;;;;13.87;9.50;;;8.30;1.00;;;;;;5070873;28;20560;-61
2022/03/23 02:20:03;;;;;;;14.20;10.47;;;8.20;1.00;;;;;;5071018;28;20441;-61
2022/03/23 02:22:29;;;;;;;14.90;10.53;;;8.20;1.00;;;;;;5070778;28;20671;-61
2022/03/23 02:24:56;;;;;;;11.37;9.07;;;8.10;1.00;;;;;;5071017;28;20822;-61
2022/03/23 02:27:22;;;;;;;11.63;10.43;;;8.00;1.00;;;;;;5053105;28;20466;-60
2022/03/23 02:29:48;;;;;;;15.60;9.80;;;7.90;1.00;;;;;;5070581;28;20897;-60
2022/03/23 02:32:14;;;;;;;14.60;10.20;;;7.90;1.00;;;;;;5070945;28;20536;-60
2022/03/23 02:34:39;;;;;;;11.47;10.27;;;7.90;1.00;;;;;;5070384;28;20191;-60
2022/03/23 02:37:06;;;;;;;12.10;9.73;;;7.80;1.00;;;;;;5070698;28;20241;-60
2022/03/23 02:39:31;;;;;;;12.10;9.10;;;7.80;1.00;;;;;;5070176;28;20544;-59
2022/03/23 02:41:57;;;;;;;14.07;9.50;;;7.80;1.00;;;;;;5070534;28;20511;-59
2022/03/23 02:44:25;;;;;;;19.43;11.30;;;7.80;1.00;;;;;;5070874;28;20210;-60
2022/03/23 02:46:51;;;;;;;14.93;10.37;;;7.80;1.00;;;;;;5048986;28;20199;-59
2022/03/23 02:49:18;;;;;;;15.50;10.83;;;7.80;1.00;;;;;;5067502;28;20511;-60
2022/03/23 02:51:44;;;;;;;12.50;10.23;;;7.80;1.00;;;;;;5070474;28;20187;-62
2022/03/23 03:02:43;;;;;;;15.30;10.53;;;7.70;1.00;;;;;;5070511;28;20905;-60
2022/03/23 03:05:10;;;;;;;12.53;9.77;;;7.70;1.00;;;;;;5070305;28;20505;-60
2022/03/23 03:10:23;;;;;;;14.53;10.47;;;7.60;1.00;;;;;;5070240;28;20429;-58
2022/03/23 03:12:50;;;;;;;16.50;10.27;;;7.60;1.00;;;;;;5070297;28;20433;-60
2022/03/23 03:15:16;;;;;;;14.67;9.90;;;;;;;;;;5070189;28;20764;-60
2022/03/23 03:17:42;;;;;;;11.83;9.03;;;;;;;;;;5070862;28;20478;-61
2022/03/23 03:20:09;;;;;;;13.53;8.90;;;7.40;1.00;;;;;;5070243;28;20967;-61
2022/03/23 03:22:38;;;;;;;15.57;10.53;;;7.40;1.00;;;;;;5070411;28;20479;-59
2022/03/23 03:25:05;;;;;;;15.70;11.13;;;7.40;1.00;;;;;;5069962;28;20437;-61
2022/03/23 03:27:35;;;;;;;19.70;12.30;;;7.40;1.00;;;;;;5070299;28;20442;-60
2022/03/23 03:30:03;;;;;;;18.70;10.80;;;7.30;1.00;;;;;;5070287;28;20822;-62
2022/03/23 03:32:28;;;;;;;15.13;10.20;;;7.30;1.00;;;;;;5070317;28;21006;-59
2022/03/23 03:34:54;;;;;;;15.83;10.63;;;7.30;1.00;;;;;;5070088;28;20579;-61
2022/03/23 03:37:22;;;;;;;16.87;12.07;;;7.30;1.00;;;;;;5068143;28;20645;-61
2022/03/23 03:39:48;;;;;;;15.63;10.80;;;7.10;1.00;;;;;;5069884;28;20183;-61
2022/03/23 03:42:14;;;;;;;13.90;11.17;;;7.00;1.00;;;;;;5069916;28;20471;-61
2022/03/23 03:44:40;;;;;;;14.47;10.80;;;7.00;1.00;;;;;;5070124;28;20872;-60
2022/03/23 03:47:05;;;;;;;15.57;10.60;;;6.90;1.00;;;;;;5070019;28;20429;-59
2022/03/23 03:49:31;;;;;;;22.97;12.00;;;7.00;1.00;;;;;;5070035;28;20221;-60
2022/03/23 03:51:57;;;;;;;12.67;10.17;;;7.00;1.00;;;;;;5071214;28;20202;-60
2022/03/23 03:54:23;;;;;;;13.30;10.00;;;7.00;1.00;;;;;;5055554;28;20238;-61
2022/03/23 03:56:49;;;;;;;11.97;9.23;;;6.90;1.00;;;;;;5055659;28;20465;-60
2022/03/23 03:59:14;;;;;;;13.80;11.70;;;6.80;1.00;;;;;;5073690;28;20195;-62
2022/03/23 04:01:40;;;;;;;15.10;10.50;;;6.70;1.00;;;;;;5073539;28;20207;-61
2022/03/23 04:04:05;;;;;;;11.50;8.53;;;6.60;1.00;;;;;;5073243;28;20187;-60
2022/03/23 04:06:31;;;;;;;12.80;10.07;;;6.60;1.00;;;;;;5073357;28;20230;-59
2022/03/23 04:08:56;;;;;;;13.13;9.30;;;6.50;1.00;;;;;;5073420;28;20240;-59
2022/03/23 04:11:22;;;;;;;11.60;8.67;;;6.50;1.00;;;;;;5073261;28;20191;-59
2022/03/23 04:13:47;;;;;;;12.90;9.50;;;6.40;1.00;;;;;;5073544;28;20348;-60
2022/03/23 04:16:13;;;;;;;13.30;9.17;;;;;;;;;;5073353;28;20680;-58
2022/03/23 04:18:39;;;;;;;13.90;8.97;;;6.50;1.00;;;;;;5073058;28;20187;-58
2022/03/23 04:21:07;;;;;;;14.27;10.07;;;6.50;1.00;;;;;;5072947;28;20464;-61
2022/03/23 04:23:33;;;;;;;15.07;8.93;;;6.50;1.00;;;;;;5073326;28;20191;-59
2022/03/23 04:25:59;;;;;;;11.63;9.17;;;6.60;1.00;;;;;;5054846;28;20430;-59
2022/03/23 04:28:25;;;;;;;11.70;9.67;;;6.50;1.00;;;;;;5073033;28;20448;-58
2022/03/23 04:30:50;;;;;;;11.20;9.37;;;6.50;1.00;;;;;;5073154;28;20175;-59
2022/03/23 04:33:16;;;;;;;10.80;8.60;;;6.60;1.00;;;;;;5072667;28;20190;-58
2022/03/23 04:35:41;;;;;;;15.23;9.63;;;6.60;1.00;;;;;;5073000;28;20274;-61
2022/03/23 04:38:07;;;;;;;10.20;8.63;;;6.70;1.00;;;;;;5073033;28;20214;-59
2022/03/23 04:40:33;;;;;;;12.87;8.90;;;6.70;1.00;;;;;;5070098;28;20271;-59
2022/03/23 04:42:58;;;;;;;12.17;9.60;;;6.60;1.00;;;;;;5072845;28;20563;-60
2022/03/23 04:45:25;;;;;;;10.37;8.50;;;6.60;1.00;;;;;;5072641;28;20521;-58
2022/03/23 04:47:51;;;;;;;13.37;9.30;;;6.50;1.00;;;;;;5070367;28;20308;-60
2022/03/23 04:50:17;;;;;;;13.20;8.73;;;6.50;1.00;;;;;;5072749;28;21060;-61
2022/03/23 04:52:44;;;;;;;14.23;9.73;;;6.40;1.00;;;;;;5072477;28;20277;-61
2022/03/23 04:55:11;;;;;;;14.43;9.77;;;6.40;1.00;;;;;;5072764;28;20504;-59
2022/03/23 04:57:36;;;;;;;11.50;9.00;;;6.30;1.00;;;;;;5072458;28;20437;-58
2022/03/23 05:00:04;;;;;;;13.93;9.27;;;6.30;1.00;;;;;;5072491;28;20502;-61
2022/03/23 05:02:30;;;;;;;11.80;9.00;;;6.30;1.00;;;;;;5071011;28;20218;-60
2022/03/23 05:04:56;;;;;;;14.13;10.37;;;6.20;1.00;;;;;;5072136;28;20433;-59
2022/03/23 05:07:25;;;;;;;14.10;10.10;;;6.30;1.00;;;;;;5072273;28;20461;-60
2022/03/23 05:09:50;;;;;;;12.53;9.80;;;6.30;1.00;;;;;;5054413;28;20452;-60
2022/03/23 05:12:16;;;;;;;10.40;9.30;;;6.30;1.00;;;;;;5072425;28;20536;-60
2022/03/23 05:14:41;;;;;;;12.63;8.70;;;6.30;1.00;;;;;;5072394;28;20546;-60
2022/03/23 05:17:07;;;;;;;15.57;10.30;;;6.20;1.00;;;;;;5071749;28;20187;-59
2022/03/23 05:19:35;;;;;;;13.03;10.57;;;6.20;1.00;;;;;;5071848;28;20186;-60
2022/03/23 05:22:01;;;;;;;11.03;9.77;;;6.20;1.00;;;;;;5071721;28;20871;-60
2022/03/23 05:24:27;;;;;;;14.70;10.10;;;6.10;1.00;;;;;;5071603;28;20479;-59
2022/03/23 05:26:52;;;;;;;13.37;9.10;;;6.20;1.00;;;;;;5066651;28;20659;-62
2022/03/23 05:29:19;;;;;;;15.10;10.30;;;6.30;1.00;;;;;;5072382;28;20418;-60
2022/03/23 05:31:44;;;;;;;14.50;9.40;;;6.30;1.00;;;;;;5071762;28;20195;-61
2022/03/23 05:34:10;;;;;;;11.63;9.40;;;6.30;1.00;;;;;;5071637;28;20795;-60
2022/03/23 05:36:35;;;;;;;11.87;9.50;;;6.30;1.00;;;;;;5071637;28;20195;-60
2022/03/23 05:39:01;;;;;;;11.03;9.10;;;6.40;1.00;;;;;;5053375;28;20249;-59
2022/03/23 05:41:26;;;;;;;13.30;9.60;;;6.40;1.00;;;;;;5072033;28;20530;-61
2022/03/23 05:43:52;;;;;;;13.90;9.53;;;6.40;1.00;;;;;;5071951;28;20232;-60
2022/03/23 05:46:17;;;;;;;11.50;10.27;;;6.40;1.00;;;;;;5071592;28;20171;-60
2022/03/23 05:48:43;;;;;;;13.37;9.77;;;6.40;1.00;;;;;;5071783;28;20186;-59
2022/03/23 05:51:09;;;;;;;16.00;9.60;;;6.50;1.00;;;;;;5053377;28;20195;-60
2022/03/23 05:53:36;;;;;;;11.13;9.17;;;6.60;1.00;;;;;;5071909;28;20803;-60
2022/03/23 05:56:07;;;;;;;17.43;10.30;;;6.70;1.00;;;;;;5071167;28;20560;-59
2022/03/23 05:58:34;;;;;;;14.83;10.93;;;6.80;1.00;;;;;;5071526;28;20441;-61
2022/03/23 06:01:00;;;;;;;16.43;10.03;;;6.90;1.00;;;;;;5071456;28;20792;-59
2022/03/23 06:03:25;;;;;;;17.33;10.70;;;7.00;1.00;;;;;;5070629;28;20440;-61
2022/03/23 06:05:51;;;;;;;11.73;9.23;;;7.00;1.00;;;;;;5070934;28;20469;-59
2022/03/23 06:08:17;;;;;;;13.67;10.87;;;7.00;1.00;;;;;;5071042;28;20175;-59
2022/03/23 06:10:43;;;;;;;15.50;10.93;;;7.10;1.00;;;;;;5071481;28;20426;-60
2022/03/23 06:13:09;;;;;;;14.40;10.60;;;7.20;1.00;;;;;;5070566;28;20188;-59
2022/03/23 06:15:34;;;;;;;14.67;10.07;;;7.30;1.00;;;;;;5070293;28;20638;-61
2022/03/23 06:18:00;;;;;;;14.57;10.30;;;7.40;1.00;;;;;;5064061;28;20481;-59
2022/03/23 06:20:26;;;;;;;14.67;10.10;;;7.50;1.00;;;;;;5070869;28;20229;-61
2022/03/23 06:22:51;;;;;;;17.50;10.77;;;7.50;1.00;;;;;;5071047;28;20209;-61
2022/03/23 06:25:17;;;;;;;13.90;10.57;;;7.50;1.00;;;;;;5070660;28;20171;-60
2022/03/23 06:27:43;;;;;;;16.57;11.57;;;;;;;;;;5070606;28;20176;-61
2022/03/23 06:30:09;;;;;;;13.60;10.37;;;8.10;1.00;;;;;;5070425;28;20199;-62
2022/03/23 06:32:34;;;;;;;14.70;10.90;;;8.30;1.00;;;;;;5070486;28;20445;-59
2022/03/23 06:35:01;;;;;;;14.37;11.13;;;8.40;1.00;;;;;;5070968;28;20901;-59
2022/03/23 06:37:27;;;;;;;13.10;10.80;;;8.40;1.00;;;;;;5070595;28;20310;-60
2022/03/23 06:39:53;;;;;;;16.37;12.10;;;8.50;1.00;;;;;;5070805;28;20553;-61
2022/03/23 06:42:19;;;;;;;15.07;11.43;;;8.50;1.00;;;;;;5070371;28;20465;-62
2022/03/23 06:44:45;;;;;;;15.87;11.93;;;8.60;1.00;;;;;;5070504;28;20272;-61
2022/03/23 06:47:10;;;;;;;15.00;11.27;;;8.80;1.00;;;;;;5070403;28;20432;-61
2022/03/23 06:49:36;;;;;;;16.47;12.43;;;8.80;1.00;;;;;;5070307;28;20434;-63
2022/03/23 06:52:01;;;;;;;16.03;12.00;;;9.00;1.00;;;;;;5070602;28;20188;-62
2022/03/23 06:54:27;;;;;;;16.40;12.23;;;9.20;1.00;;;;;;5070199;28;20751;-61
2022/03/23 06:56:52;;;;;;;19.27;12.23;;;9.30;1.00;;;;;;5070548;28;20191;-61
2022/03/23 06:59:19;;;;;;;22.33;11.70;;;9.50;1.00;;;;;;5070321;28;20667;-61
2022/03/23 07:01:46;;;;;;;17.47;12.03;;;9.40;1.00;;;;;;5063708;28;20213;-61
2022/03/23 07:04:12;;;;;;;15.33;10.83;;;9.40;1.00;;;;;;5070445;28;20437;-61
2022/03/23 07:06:37;;;;;;;19.73;11.93;;;9.80;1.00;;;;;;5072755;28;20870;-60
2022/03/23 07:11:47;;;;;;;15.70;11.90;;;10.10;1.00;;;;;;5069876;28;20229;-62
2022/03/23 07:14:12;;;;;;;14.70;11.57;;;10.10;1.00;;;;;;5069943;28;20473;-62
2022/03/23 07:16:38;;;;;;;16.43;11.13;;;10.30;1.00;;;;;;5069986;28;20287;-61
2022/03/23 07:19:04;;;;;;;15.47;11.37;;;10.40;1.00;;;;;;5069896;28;20190;-61
2022/03/23 07:21:30;;;;;;;19.27;12.30;;;10.60;1.00;;;;;;5069942;28;20560;-60
2022/03/23 07:23:56;;;;;;;15.80;11.93;;;10.70;1.00;;;;;;5069920;28;20477;-60
2022/03/23 07:26:22;;;;;;;17.53;12.50;;;10.80;1.00;;;;;;5072135;28;20947;-60
2022/03/23 07:28:49;;;;;;;18.20;12.87;;;11.00;1.00;;;;;;5073918;28;20213;-60
2022/03/23 07:31:14;;;;;;;16.00;12.10;;;11.10;1.00;;;;;;5074112;28;20524;-59
2022/03/23 07:33:40;;;;;;;20.70;12.77;;;11.20;1.00;;;;;;5073747;28;20523;-59
2022/03/23 07:36:05;;;;;;;17.07;13.33;;;11.40;1.00;;;;;;5073874;28;20210;-61
2022/03/23 07:38:31;;;;;;;17.13;12.70;;;11.40;1.00;;;;;;5074208;28;20270;-62
2022/03/23 07:40:56;;;;;;;19.73;12.33;;;11.60;1.00;;;;;;5073467;28;20286;-62
2022/03/23 07:43:22;;;;;;;14.07;11.43;;;11.60;1.00;;;;;;5073407;28;20179;-63
2022/03/23 07:45:48;;;;;;;16.83;12.77;;;11.90;1.00;;;;;;5073467;28;20187;-60
2022/03/23 07:48:15;;;;;;;16.43;13.00;;;11.90;1.00;;;;;;5055544;28;20172;-60
2022/03/23 07:50:41;;;;;;;21.30;12.93;;;12.10;1.00;;;;;;5073438;28;20168;-62
2022/03/23 07:53:06;;;;;;;23.33;14.17;;;12.20;1.00;;;;;;5055468;28;20441;-62
2022/03/23 07:55:32;;;;;;;15.60;13.90;;;12.40;1.00;;;;;;5073640;28;20182;-61
2022/03/23 07:57:57;;;;;;;16.27;12.13;;;12.50;1.00;;;;;;5073550;28;20789;-61
2022/03/23 08:00:23;;;;;;;17.73;13.40;;;12.60;1.00;;;;;;5073089;28;20191;-61
2022/03/23 08:02:50;;;;;;;19.07;13.00;;;12.80;1.00;;;;;;5072785;28;20695;-62
2022/03/23 08:05:15;;;;;;;15.63;12.90;;;12.90;1.00;;;;;;5071656;28;20179;-61
2022/03/23 08:07:41;;;;;;;18.37;14.10;;;13.00;1.00;;;;;;5072995;28;20781;-64
2022/03/23 08:10:07;;;;;;;16.30;12.83;;;13.10;1.00;;;;;;5070686;28;20183;-62
2022/03/23 08:12:33;;;;;;;20.63;12.13;;;13.40;1.00;;;;;;5069611;28;20202;-59
2022/03/23 08:14:58;;;;;;;14.80;12.60;;;13.60;1.00;;;;;;5073230;28;20472;-60
2022/03/23 08:17:24;;;;;;;15.13;13.00;;;13.80;1.00;;;;;;5072818;28;20175;-61
2022/03/23 08:20:32;;;;;;;15.17;12.30;;;;;;;;;;5073012;28;20206;-61
2022/03/23 08:22:36;;;;;;;15.43;12.10;;;14.00;1.00;;;;;;5072915;28;20268;-61
2022/03/23 08:25:01;;;;;;;16.47;12.97;;;14.20;1.00;;;;;;5072933;28;21040;-62
2022/03/23 08:27:27;;;;;;;15.37;12.60;;;14.20;1.00;;;;;;5069146;28;20226;-62
2022/03/23 08:29:53;;;;;;;14.20;12.67;;;14.40;1.00;;;;;;5054698;28;20199;-60
2022/03/23 08:32:26;;;;;;;16.53;12.93;;;14.30;1.00;;;;;;5072658;28;20190;-61
2022/03/23 08:34:52;;;;;;;17.73;13.87;;;14.50;1.00;;;;;;5072408;28;20201;-61
2022/03/23 08:37:18;;;;;;;15.87;12.90;;;14.70;1.00;;;;;;5054003;28;20441;-62
2022/03/23 08:39:43;;;;;;;16.60;14.77;;;14.80;1.00;;;;;;5073189;28;20441;-63
2022/03/23 08:42:09;;;;;;;13.27;11.90;;;14.90;1.00;;;;;;5072968;28;20484;-61
2022/03/23 08:44:35;;;;;;;15.83;12.60;;;15.10;1.00;;;;;;5072661;28;20254;-61
2022/03/23 08:47:00;;;;;;;15.13;12.10;;;15.20;1.00;;;;;;5072635;28;20170;-60
2022/03/23 08:49:26;;;;;;;17.47;13.13;;;15.40;1.00;;;;;;5070835;28;20198;-62
2022/03/23 08:51:52;;;;;;;13.73;10.80;;;15.50;1.00;;;;;;5070828;28;20184;-61
2022/03/23 08:54:17;;;;;;;19.73;13.10;;;15.50;1.00;;;;;;5072574;28;20191;-62
2022/03/23 08:56:43;;;;;;;14.07;12.67;;;15.60;1.00;;;;;;5072281;28;20229;-62
2022/03/23 08:59:09;;;;;;;16.43;13.20;;;15.90;1.00;;;;;;5072671;28;20230;-62
2022/03/23 09:01:34;;;;;;;16.37;12.03;;;16.20;1.00;;;;;;5072319;28;20202;-60
2022/03/23 09:04:03;;;;;;;13.93;12.43;;;16.40;1.00;;;;;;5072348;28;20434;-61
2022/03/23 09:06:29;;;;;;;14.60;13.17;;;16.50;1.00;;;;;;5071894;28;20315;-62
2022/03/23 09:08:55;;;;;;;17.00;13.80;;;16.50;1.00;;;;;;5054193;28;20524;-62
2022/03/23 09:11:22;;;;;;;19.77;12.77;;;16.50;1.00;;;;;;5071948;28;20573;-62
2022/03/23 09:13:48;;;;;;;16.60;13.43;;;16.80;1.00;;;;;;5071967;28;20243;-61
2022/03/23 09:16:15;;;;;;;15.50;12.93;;;16.80;1.00;;;;;;5072146;28;20421;-61
2022/03/23 09:18:41;;;;;;;19.50;14.10;;;17.10;1.00;;;;;;5071848;28;20437;-61
2022/03/23 09:23:36;;;;;;;17.00;12.60;;;16.80;1.00;;;;;;5071915;28;20584;-60
2022/03/23 09:26:08;;;;;;;16.80;12.37;;;16.80;1.00;;;;;;5071747;28;20202;-61
2022/03/23 09:28:34;;;;;;;17.57;13.60;;;16.90;1.00;;;;;;5071786;28;20805;-60
2022/03/23 09:30:59;;;;;;;16.30;13.90;;;16.80;1.00;;;;;;5071898;28;20434;-62
2022/03/23 09:33:25;;;;;;;17.70;14.33;;;16.80;1.00;;;;;;5071674;28;20947;-61
2022/03/23 09:35:51;;;;;;;18.43;13.80;;;17.10;1.00;;;;;;5071779;28;20206;-62
2022/03/23 09:38:17;;;;;;;18.10;12.77;;;17.30;1.00;;;;;;5071543;28;20526;-62
2022/03/23 09:40:50;;;;;;;15.30;13.20;;;17.30;1.00;;;;;;5071423;28;20187;-63
2022/03/23 09:43:18;;;;;;;16.13;14.17;;;17.50;1.00;;;;;;5071724;28;20639;-62
2022/03/23 09:48:11;;;;;;;17.60;14.03;;;17.40;1.00;;;;;;5071484;28;20784;-61
2022/03/23 09:50:41;;;;;;;21.40;13.93;;;17.50;1.00;;;;;;5070929;28;20650;-61
2022/03/23 09:53:07;;;;;;;16.60;14.20;;;17.60;1.00;;;;;;5071070;28;20426;-61
2022/03/23 09:55:33;;;;;;;15.30;13.40;;;17.30;1.00;;;;;;5071026;28;20440;-61
2022/03/23 09:58:04;;;;;;;18.27;14.60;;;17.30;1.00;;;;;;5071128;28;20433;-61
2022/03/23 10:00:34;;;;;;;15.83;13.43;;;17.20;1.00;;;;;;5070815;28;20692;-60
2022/03/23 10:03:12;;;;;;;19.10;13.20;;;17.20;1.00;;;;;;5070700;28;20476;-61
2022/03/23 10:06:16;;;;;;;16.30;13.60;;;17.40;1.00;;;;;;5070648;28;20562;-61
2022/03/23 10:08:58;;;;;;;17.90;14.10;;;17.50;1.00;;;;;;5030935;28;20809;-63
2022/03/23 10:12:21;;;;;;;17.10;14.50;;;17.30;1.00;;;;;;5031192;28;20841;-62
2022/03/23 10:15:14;;;;;;;16.77;13.97;;;17.40;1.00;;;;;;5030303;28;20478;-61
2022/03/23 10:17:50;;;;;;;17.77;14.10;;;17.80;1.00;;;;;;5031089;28;20435;-62
2022/03/23 10:20:16;;;;;;;20.50;14.30;;;18.40;1.00;;;;;;5030830;28;20433;-60
2022/03/23 10:22:52;;;;;;;20.77;14.97;;;18.50;1.00;;;;;;5030645;28;20462;-61
2022/03/23 10:25:26;;;;;;;15.13;13.47;;;18.40;1.00;;;;;;5031014;28;20180;-62
2022/03/23 10:27:55;;;;;;;15.40;13.20;;;18.20;1.00;;;;;;5030645;28;20439;-60
2022/03/23 10:30:32;;;;;;;15.53;13.00;;;18.00;1.00;;;;;;5030810;28;20526;-61
2022/03/23 10:32:58;;;;;;;16.53;13.40;;;17.90;1.00;;;;;;5030412;28;20427;-62
2022/03/23 10:35:37;;;;;;;20.80;13.53;;;17.90;1.00;;;;;;5030749;28;20435;-60
2022/03/23 10:38:14;;;;;;;16.93;12.60;;;18.10;1.00;;;;;;5027876;28;20191;-62
2022/03/23 10:40:41;;;;;;;15.60;13.57;;;18.20;1.00;;;;;;5030298;28;20516;-61
2022/03/23 10:43:07;;;;;;;20.57;14.33;;;19.10;1.00;;;;;;5030336;28;20470;-62
2022/03/23 10:45:33;;;;;;;17.13;14.50;;;19.50;1.00;;;;;;5030293;28;20432;-60
2022/03/23 10:48:15;;;;;;;16.00;13.23;;;19.50;1.00;;;;;;5030264;28;20427;-61
2022/03/23 10:50:52;;;;;;;16.70;13.83;;;20.20;1.00;;;;;;5030407;28;20176;-60
2022/03/23 10:53:35;;;;;;;16.43;12.97;;;20.00;1.00;;;;;;5029960;28;20838;-63
2022/03/23 10:56:02;;;;;;;18.23;14.00;;;20.00;1.00;;;;;;5030200;28;20435;-63
2022/03/23 10:58:32;;;;;;;15.73;13.70;;;19.80;1.00;;;;;;5026790;28;20444;-63
2022/03/23 11:01:07;;;;;;;14.10;12.67;;;19.90;1.00;;;;;;5029366;28;20589;-62
2022/03/23 11:03:37;;;;;;;19.30;13.70;;;20.00;1.00;;;;;;5029807;28;20534;-62
2022/03/23 11:08:33;;;;;;;16.50;12.33;;;20.00;1.00;;;;;;5070042;28;20480;-62
2022/03/23 11:16:37;;;;;;;16.07;13.13;;;19.80;1.00;;;;;;5070037;28;20440;-61
2022/03/23 11:19:11;;;;;;;14.13;12.53;;;19.90;1.00;;;;;;5069768;28;20611;-62
2022/03/23 11:22:05;;;;;;;16.50;13.70;;;20.00;1.00;;;;;;5070144;28;20465;-62
2022/03/23 11:24:34;;;;;;;15.37;13.77;;;19.70;1.00;;;;;;5057897;28;20951;-62
2022/03/23 11:27:00;;;;;;;17.10;15.00;;;21.80;1.00;;;;;;5069676;28;20787;-62
2022/03/23 11:29:26;;;;;;;15.57;13.70;;;20.00;1.00;;;;;;5069896;28;20445;-62
2022/03/23 11:31:53;;;;;;;16.80;13.63;;;20.00;1.00;;;;;;5069758;28;20437;-61
2022/03/23 11:34:22;;;;;;;17.00;13.90;;;19.00;1.00;;;;;;5069718;28;20982;-62
2022/03/23 11:36:51;;;;;;;16.60;14.80;;;20.10;1.00;;;;;;5069512;28;20934;-63
2022/03/23 11:39:22;;;;;;;18.00;15.07;;;20.00;1.00;;;;;;5068375;28;20433;-62
2022/03/23 11:41:50;;;;;;;14.70;13.10;;;20.00;1.00;;;;;;5069898;28;20472;-61
2022/03/23 11:48:01;;;;;;;16.23;12.73;;;19.70;1.00;;;;;;4984881;28;20450;-62
2022/03/23 11:50:39;;;;;;;18.33;13.50;;;19.70;1.00;;;;;;5056035;28;20441;-60
2022/03/23 11:53:12;;;;;;;17.23;14.07;;;19.50;1.00;;;;;;5069513;28;20433;-62
2022/03/23 11:55:45;;;;;;;15.40;13.30;;;19.90;1.00;;;;;;5069909;28;20943;-63
2022/03/23 11:58:22;;;;;;;14.20;12.43;;;19.90;1.00;;;;;;5051558;28;20469;-62
2022/03/23 12:01:06;;;;;;;15.70;13.43;;;20.10;1.00;;;;;;5069721;28;20448;-62
2022/03/23 12:03:43;;;;;;;16.40;14.00;;;19.90;1.00;;;;;;5069551;28;20968;-61
2022/03/23 12:06:17;;;;;;;18.13;14.20;;;20.00;1.00;;;;;;5069247;28;20469;-61
2022/03/23 12:08:53;;;;;;;17.63;14.07;;;20.40;1.00;;;;;;5051727;28;20524;-61
2022/03/23 12:11:44;;;;;;;18.23;15.27;;;20.40;1.00;;;;;;5069489;28;20437;-61
2022/03/23 12:14:22;;;;;;;17.47;14.60;;;20.50;1.00;;;;;;5072207;28;20539;-62
2022/03/23 12:16:53;;;;;;;15.20;13.60;;;20.50;1.00;;;;;;5073248;28;20605;-62
2022/03/23 12:19:23;;;;;;;16.47;14.03;;;20.50;1.00;;;;;;5072889;28;20446;-62
2022/03/23 12:22:16;;;;;;;18.60;14.30;;;20.40;1.00;;;;;;5073250;28;20476;-63
2022/03/23 12:24:41;;;;;;;18.30;14.40;;;20.30;1.00;;;;;;5054718;28;20479;-61
2022/03/23 12:27:50;;;;;;;16.70;13.90;;;20.30;1.00;;;;;;5072869;28;20541;-62
2022/03/23 12:30:30;;;;;;;23.47;14.60;;;20.30;1.00;;;;;;5021434;28;20700;-62
2022/03/23 12:33:08;;;;;;;15.83;13.63;;;20.10;1.00;;;;;;5072602;28;20939;-62
2022/03/23 12:35:35;;;;;;;17.77;14.87;;;20.00;1.00;;;;;;5072829;28;20429;-63
2022/03/23 12:38:02;;;;;;;17.13;14.57;;;19.80;1.00;;;;;;5072876;28;20494;-62
2022/03/23 12:40:42;;;;;;;18.07;14.03;;;19.90;1.00;;;;;;5072601;28;20480;-62
2022/03/23 12:43:08;;;;;;;18.20;14.63;;;19.90;1.00;;;;;;5072367;28;20441;-62
2022/03/23 12:45:36;;;;;;;16.17;14.53;;;19.90;1.00;;;;;;5071988;28;20441;-62
2022/03/23 12:57:49;;;;;;;21.07;14.30;;;20.00;1.00;;;;;;5072672;28;20198;-61
2022/03/23 12:59:19;;;;;;;16.90;14.57;;;20.20;1.00;;;;;;5072767;28;20432;-63
2022/03/23 13:01:46;;;;;;;18.20;15.77;;;20.00;1.00;;;;;;5072344;28;20467;-63
2022/03/23 13:04:45;;;;;;;18.23;15.90;;;20.30;1.00;;;;;;5072576;28;20949;-62
2022/03/23 13:07:28;;;;;;;19.73;16.87;;;20.30;1.00;;;;;;5067726;28;20477;-62
2022/03/23 13:10:05;;;;;;;21.53;15.87;;;20.30;1.00;;;;;;5072356;28;20477;-62
2022/03/23 13:12:31;;;;;;;22.93;17.57;;;20.20;1.00;;;;;;5072060;28;21027;-63
2022/03/23 13:15:08;;;;;;;19.30;17.10;;;20.40;1.00;;;;;;5072401;28;20938;-62
2022/03/23 13:17:34;;;;;;;20.90;17.40;;;20.30;1.00;;;;;;5072184;28;21001;-62
2022/03/23 13:20:00;;;;;;;19.77;17.67;;;20.20;1.00;;;;;;5054341;28;20981;-62
2022/03/23 13:22:33;;;;;;;22.43;17.70;;;20.10;1.00;;;;;;5053720;28;20475;-63
2022/03/23 13:25:04;;;;;;;22.37;16.77;;;20.20;1.00;;;;;;5053606;28;20184;-61
2022/03/23 13:27:30;;;;;;;22.73;16.30;;;;;;;;;;5071731;28;20820;-61
2022/03/23 13:30:03;;;;;;;20.37;17.30;;;19.90;1.00;;;;;;5071850;28;20473;-62
2022/03/23 13:32:39;;;;;;;22.57;17.07;;;19.90;1.00;;;;;;5071633;28;20856;-60